sensor_id;sensor_type;location;lat;lon;timestamp;pressure;altitude;pressure_sealevel;temperature;humidity
65534;BME280;53640;55.838;37.184;2024-03-17T09:15:03;99170.28;;;3.85;46.06
65534;BME280;53640;55.838;37.184;2024-03-17T09:17:31;99124.50;;;3.48;45.78
65534;BME280;53640;55.838;37.184;2024-03-17T09:19:57;99171.66;;;3.81;46.05
65534;BME280;53640;55.838;37.184;2024-03-17T09:22:23;99049.16;;;3.14;45.92
65534;BME280;53640;55.838;37.184;2024-03-17T09:24:50;99148.59;;;3.71;45.99
65534;BME280;53640;55.838;37.184;2024-03-17T09:27:16;99135.09;;;3.65;46.05
65534;BME280;53640;55.838;37.184;2024-03-17T09:29:46;99114.66;;;3.49;45.94
65534;BME280;53640;55.838;37.184;2024-03-17T09:32:13;99168.91;;;3.89;45.63
65534;BME280;53640;55.838;37.184;2024-03-17T09:34:47;99167.94;;;3.82;45.79
65534;BME280;53640;55.838;37.184;2024-03-17T09:37:14;99170.56;;;3.90;45.96
65534;BME280;53640;55.838;37.184;2024-03-17T09:39:47;99169.53;;;3.91;45.78
65534;BME280;53640;55.838;37.184;2024-03-17T09:42:18;99072.09;;;3.31;45.94
65534;BME280;53640;55.838;37.184;2024-03-17T09:44:48;99172.06;;;3.92;45.90
65534;BME280;53640;55.838;37.184;2024-03-17T09:47:20;99028.22;;;2.94;46.13
65534;BME280;53640;55.838;37.184;2024-03-17T09:49:48;99153.25;;;3.78;46.05
65534;BME280;53640;55.838;37.184;2024-03-17T09:52:23;99145.69;;;3.81;45.65
65534;BME280;53640;55.838;37.184;2024-03-17T09:55:13;99153.47;;;3.91;46.00
65534;BME280;53640;55.838;37.184;2024-03-17T09:57:41;99178.44;;;4.06;45.46
65534;BME280;53640;55.838;37.184;2024-03-17T10:00:11;99168.84;;;3.97;45.79
65534;BME280;53640;55.838;37.184;2024-03-17T10:02:44;99060.56;;;3.39;45.47
65534;BME280;53640;55.838;37.184;2024-03-17T10:05:23;99124.44;;;3.80;45.55
65534;BME280;53640;55.838;37.184;2024-03-17T10:07:51;99167.03;;;4.12;45.55
65534;BME280;53640;55.838;37.184;2024-03-17T10:10:20;99159.06;;;4.04;45.03
65534;BME280;53640;55.838;37.184;2024-03-17T10:12:51;99102.88;;;3.81;45.33
65534;BME280;53640;55.838;37.184;2024-03-17T10:15:19;99155.84;;;4.09;45.50
65534;BME280;53640;55.838;37.184;2024-03-17T10:17:46;99124.50;;;3.94;45.11
65534;BME280;53640;55.838;37.184;2024-03-17T10:20:17;99098.34;;;3.82;45.41
65534;BME280;53640;55.838;37.184;2024-03-17T10:23:04;99112.66;;;3.89;45.33
65534;BME280;53640;55.838;37.184;2024-03-17T10:25:33;99138.59;;;4.11;45.22
65534;BME280;53640;55.838;37.184;2024-03-17T10:28:01;99153.91;;;4.17;45.29
65534;BME280;53640;55.838;37.184;2024-03-17T10:30:28;99151.44;;;4.16;45.17
65534;BME280;53640;55.838;37.184;2024-03-17T10:32:59;99151.22;;;4.17;44.99
65534;BME280;53640;55.838;37.184;2024-03-17T10:38:02;99158.78;;;4.14;45.00
65534;BME280;53640;55.838;37.184;2024-03-17T10:57:59;99148.34;;;4.42;45.34
65534;BME280;53640;55.838;37.184;2024-03-17T11:00:31;99141.22;;;4.49;44.95
65534;BME280;53640;55.838;37.184;2024-03-17T11:02:58;99101.38;;;4.31;45.16
65534;BME280;53640;55.838;37.184;2024-03-17T11:05:29;99134.94;;;4.57;44.60
65534;BME280;53640;55.838;37.184;2024-03-17T11:07:57;99133.00;;;4.51;44.71
65534;BME280;53640;55.838;37.184;2024-03-17T11:10:29;99140.47;;;4.55;44.79
65534;BME280;53640;55.838;37.184;2024-03-17T11:13:00;99082.25;;;4.19;44.77
65534;BME280;53640;55.838;37.184;2024-03-17T11:20:42;99131.41;;;4.41;44.80
65534;BME280;53640;55.838;37.184;2024-03-17T11:23:09;99125.75;;;4.36;44.53
65534;BME280;53640;55.838;37.184;2024-03-17T11:28:04;99134.72;;;4.43;44.85
65534;BME280;53640;55.838;37.184;2024-03-17T11:30:43;99109.59;;;4.30;44.88
65534;BME280;53640;55.838;37.184;2024-03-17T11:41:54;99124.41;;;4.40;45.08
65534;BME280;53640;55.838;37.184;2024-03-17T11:47:02;99084.09;;;4.19;44.86
65534;BME280;53640;55.838;37.184;2024-03-17T11:49:38;99106.94;;;4.30;45.12
65534;BME280;53640;55.838;37.184;2024-03-17T11:52:12;99063.38;;;3.98;45.19
65534;BME280;53640;55.838;37.184;2024-03-17T11:54:41;99061.81;;;4.04;45.06
65534;BME280;53640;55.838;37.184;2024-03-17T11:59:37;99115.31;;;4.27;45.49
65534;BME280;53640;55.838;37.184;2024-03-17T12:02:17;99115.78;;;4.30;45.47
65534;BME280;53640;55.838;37.184;2024-03-17T12:04:44;99094.91;;;4.11;45.35
65534;BME280;53640;55.838;37.184;2024-03-17T12:07:16;99116.97;;;4.28;45.70
65534;BME280;53640;55.838;37.184;2024-03-17T12:09:44;99081.03;;;4.07;45.61
65534;BME280;53640;55.838;37.184;2024-03-17T12:12:23;99116.97;;;4.28;45.76
65534;BME280;53640;55.838;37.184;2024-03-17T12:14:51;99085.72;;;4.05;45.43
65534;BME280;53640;55.838;37.184;2024-03-17T12:17:22;99059.75;;;3.91;45.77
65534;BME280;53640;55.838;37.184;2024-03-17T12:19:50;99089.81;;;4.16;45.76
65534;BME280;53640;55.838;37.184;2024-03-17T12:22:21;99082.31;;;3.96;45.66
65534;BME280;53640;55.838;37.184;2024-03-17T12:24:52;99071.41;;;3.98;45.73
65534;BME280;53640;55.838;37.184;2024-03-17T12:27:23;99096.47;;;4.20;46.14
65534;BME280;53640;55.838;37.184;2024-03-17T12:29:52;99096.38;;;4.28;45.70
65534;BME280;53640;55.838;37.184;2024-03-17T12:32:22;99093.91;;;4.27;45.61
65534;BME280;53640;55.838;37.184;2024-03-17T12:37:22;99103.88;;;4.33;45.61
65534;BME280;53640;55.838;37.184;2024-03-17T12:39:49;99069.88;;;4.18;45.61
65534;BME280;53640;55.838;37.184;2024-03-17T12:42:26;99049.88;;;4.06;45.84
65534;BME280;53640;55.838;37.184;2024-03-17T12:47:22;99100.28;;;4.26;45.74
65534;BME280;53640;55.838;37.184;2024-03-17T12:49:50;99077.59;;;4.13;45.78
65534;BME280;53640;55.838;37.184;2024-03-17T12:52:27;99057.84;;;3.99;45.74
65534;BME280;53640;55.838;37.184;2024-03-17T12:55:08;98994.34;;;3.56;46.23
65534;BME280;53640;55.838;37.184;2024-03-17T13:01:08;99085.56;;;4.07;46.73
65534;BME280;53640;55.838;37.184;2024-03-17T13:03:35;99066.88;;;3.98;46.35
65534;BME280;53640;55.838;37.184;2024-03-17T13:06:03;99080.00;;;4.08;46.48
65534;BME280;53640;55.838;37.184;2024-03-17T13:08:33;99074.75;;;4.00;46.36
65534;BME280;53640;55.838;37.184;2024-03-17T13:11:00;99059.47;;;3.86;46.36
65534;BME280;53640;55.838;37.184;2024-03-17T13:13:26;99057.72;;;3.78;46.33
65534;BME280;53640;55.838;37.184;2024-03-17T13:15:53;99028.97;;;3.72;46.49
65534;BME280;53640;55.838;37.184;2024-03-17T13:18:20;99083.88;;;4.06;46.58
65534;BME280;53640;55.838;37.184;2024-03-17T13:20:48;99073.44;;;3.96;46.62
65534;BME280;53640;55.838;37.184;2024-03-17T13:23:20;99025.13;;;3.74;46.38
65534;BME280;53640;55.838;37.184;2024-03-17T13:25:51;99067.81;;;4.06;46.55
65534;BME280;53640;55.838;37.184;2024-03-17T13:28:18;99051.56;;;3.92;46.45
65534;BME280;53640;55.838;37.184;2024-03-17T13:30:46;99040.72;;;3.86;46.48
65534;BME280;53640;55.838;37.184;2024-03-17T13:33:14;99052.38;;;3.93;46.65
65534;BME280;53640;55.838;37.184;2024-03-17T13:35:42;99042.13;;;3.82;46.53
65534;BME280;53640;55.838;37.184;2024-03-17T13:38:10;99067.25;;;3.95;46.84
65534;BME280;53640;55.838;37.184;2024-03-17T13:40:39;99024.19;;;3.67;46.83
65534;BME280;53640;55.838;37.184;2024-03-17T13:43:06;99055.88;;;3.93;47.07
65534;BME280;53640;55.838;37.184;2024-03-17T13:45:42;99049.44;;;3.88;46.85
65534;BME280;53640;55.838;37.184;2024-03-17T13:48:13;99040.50;;;3.72;46.87
65534;BME280;53640;55.838;37.184;2024-03-17T13:50:40;99043.59;;;3.84;46.83
65534;BME280;53640;55.838;37.184;2024-03-17T13:53:08;99054.22;;;3.92;46.59
65534;BME280;53640;55.838;37.184;2024-03-17T13:55:35;99037.22;;;3.85;46.61
65534;BME280;53640;55.838;37.184;2024-03-17T13:58:02;99025.03;;;3.83;46.61
65534;BME280;53640;55.838;37.184;2024-03-17T14:00:31;99039.63;;;3.80;47.17
65534;BME280;53640;55.838;37.184;2024-03-17T14:03:02;99021.69;;;3.66;46.90
65534;BME280;53640;55.838;37.184;2024-03-17T14:05:28;99027.50;;;3.69;47.04
65534;BME280;53640;55.838;37.184;2024-03-17T14:07:55;99043.50;;;3.78;47.12
65534;BME280;53640;55.838;37.184;2024-03-17T14:10:25;98997.94;;;3.48;46.96
65534;BME280;53640;55.838;37.184;2024-03-17T14:12:51;99037.75;;;3.66;47.03
65534;BME280;53640;55.838;37.184;2024-03-17T14:15:23;99056.22;;;3.75;47.32
65534;BME280;53640;55.838;37.184;2024-03-17T14:17:52;98988.50;;;3.37;47.42
65534;BME280;53640;55.838;37.184;2024-03-17T14:20:18;98993.16;;;3.35;47.35
65534;BME280;53640;55.838;37.184;2024-03-17T14:22:46;99047.63;;;3.65;47.31
65534;BME280;53640;55.838;37.184;2024-03-17T14:25:22;99040.47;;;3.43;48.15
65534;BME280;53640;55.838;37.184;2024-03-17T14:27:49;99038.34;;;3.53;47.41
65534;BME280;53640;55.838;37.184;2024-03-17T14:30:17;99010.56;;;3.39;47.46
65534;BME280;53640;55.838;37.184;2024-03-17T14:32:45;99013.88;;;3.41;47.25
65534;BME280;53640;55.838;37.184;2024-03-17T14:35:16;99041.97;;;3.60;47.59
65534;BME280;53640;55.838;37.184;2024-03-17T14:37:46;99008.50;;;3.41;47.29
65534;BME280;53640;55.838;37.184;2024-03-17T14:40:16;99007.22;;;3.37;47.30
65534;BME280;53640;55.838;37.184;2024-03-17T14:42:55;98989.56;;;3.28;47.40
65534;BME280;53640;55.838;37.184;2024-03-17T14:45:22;99044.84;;;3.59;47.29
65534;BME280;53640;55.838;37.184;2024-03-17T14:47:51;98984.09;;;3.21;47.28
65534;BME280;53640;55.838;37.184;2024-03-17T14:50:20;98970.09;;;3.11;47.90
65534;BME280;53640;55.838;37.184;2024-03-17T14:52:47;99014.72;;;3.34;47.60
65534;BME280;53640;55.838;37.184;2024-03-17T14:55:14;99041.91;;;3.45;48.13
65534;BME280;53640;55.838;37.184;2024-03-17T14:57:50;98967.03;;;2.99;47.47
65534;BME280;53640;55.838;37.184;2024-03-17T15:00:18;99043.69;;;3.53;47.66
65534;BME280;53640;55.838;37.184;2024-03-17T15:02:48;99026.78;;;3.38;47.77
65534;BME280;53640;55.838;37.184;2024-03-17T15:05:17;99041.09;;;3.45;47.96
65534;BME280;53640;55.838;37.184;2024-03-17T15:07:45;99039.09;;;3.47;47.87
65534;BME280;53640;55.838;37.184;2024-03-17T15:10:12;98975.53;;;3.03;47.92
65534;BME280;53640;55.838;37.184;2024-03-17T15:12:40;99034.72;;;3.46;47.98
65534;BME280;53640;55.838;37.184;2024-03-17T15:15:07;98973.41;;;2.98;47.77
65534;BME280;53640;55.838;37.184;2024-03-17T15:17:37;99023.59;;;3.34;47.71
65534;BME280;53640;55.838;37.184;2024-03-17T15:20:05;99034.44;;;3.41;47.83
65534;BME280;53640;55.838;37.184;2024-03-17T15:22:48;99047.81;;;3.41;47.60
65534;BME280;53640;55.838;37.184;2024-03-17T15:25:21;99012.66;;;3.21;47.82
65534;BME280;53640;55.838;37.184;2024-03-17T15:28:23;98993.97;;;2.98;47.64
65534;BME280;53640;55.838;37.184;2024-03-17T15:30:51;99036.06;;;3.19;47.62
65534;BME280;53640;55.838;37.184;2024-03-17T15:33:17;98991.16;;;2.91;47.79
65534;BME280;53640;55.838;37.184;2024-03-17T15:35:47;98971.34;;;2.77;47.96
65534;BME280;53640;55.838;37.184;2024-03-17T15:38:16;99038.94;;;3.17;47.68
65534;BME280;53640;55.838;37.184;2024-03-17T15:40:46;99039.09;;;3.16;47.60
65534;BME280;53640;55.838;37.184;2024-03-17T15:43:13;99052.06;;;3.27;47.79
65534;BME280;53640;55.838;37.184;2024-03-17T15:45:39;99031.25;;;3.14;47.70
65534;BME280;53640;55.838;37.184;2024-03-17T15:48:08;98922.16;;;2.41;47.55
65534;BME280;53640;55.838;37.184;2024-03-17T15:50:35;98912.47;;;2.40;47.63
65534;BME280;53640;55.838;37.184;2024-03-17T15:53:07;99037.63;;;3.13;47.54
65534;BME280;53640;55.838;37.184;2024-03-17T15:55:34;99038.63;;;3.12;47.53
65534;BME280;53640;55.838;37.184;2024-03-17T15:58:03;99040.66;;;3.10;47.52
65534;BME280;53640;55.838;37.184;2024-03-17T16:00:29;99050.66;;;3.16;47.80
65534;BME280;53640;55.838;37.184;2024-03-17T16:02:56;99018.03;;;2.98;47.49
65534;BME280;53640;55.838;37.184;2024-03-17T16:05:29;99044.75;;;2.98;47.82
65534;BME280;53640;55.838;37.184;2024-03-17T16:07:55;98963.22;;;2.40;48.06
65534;BME280;53640;55.838;37.184;2024-03-17T16:10:28;99009.44;;;2.79;47.89
65534;BME280;53640;55.838;37.184;2024-03-17T16:12:57;99037.72;;;2.97;47.61
65534;BME280;53640;55.838;37.184;2024-03-17T16:15:24;98997.94;;;2.71;47.95
65534;BME280;53640;55.838;37.184;2024-03-17T16:17:50;99006.09;;;2.77;47.56
65534;BME280;53640;55.838;37.184;2024-03-17T16:20:44;99049.84;;;3.08;47.58
65534;BME280;53640;55.838;37.184;2024-03-17T16:23:23;99056.56;;;3.03;47.68
65534;BME280;53640;55.838;37.184;2024-03-17T16:25:50;99038.56;;;2.97;47.81
65534;BME280;53640;55.838;37.184;2024-03-17T16:28:29;99055.19;;;3.08;47.70
65534;BME280;53640;55.838;37.184;2024-03-17T16:30:56;99037.25;;;2.93;47.81
65534;BME280;53640;55.838;37.184;2024-03-17T16:33:23;99052.72;;;3.06;47.82
65534;BME280;53640;55.838;37.184;2024-03-17T16:35:58;99052.44;;;2.93;48.16
65534;BME280;53640;55.838;37.184;2024-03-17T16:38:25;99032.97;;;2.84;47.79
65534;BME280;53640;55.838;37.184;2024-03-17T16:40:58;99031.13;;;2.85;48.28
65534;BME280;53640;55.838;37.184;2024-03-17T16:43:41;99009.50;;;2.71;48.06
65534;BME280;53640;55.838;37.184;2024-03-17T16:49:12;99050.94;;;2.98;47.53
65534;BME280;53640;55.838;37.184;2024-03-17T16:51:40;99037.47;;;2.84;47.93
65534;BME280;53640;55.838;37.184;2024-03-17T16:54:17;99057.94;;;2.99;47.79
65534;BME280;53640;55.838;37.184;2024-03-17T16:56:44;99021.50;;;2.75;47.49
65534;BME280;53640;55.838;37.184;2024-03-17T16:59:11;99044.63;;;2.91;47.79
65534;BME280;53640;55.838;37.184;2024-03-17T17:01:38;98994.81;;;2.67;47.52
65534;BME280;53640;55.838;37.184;2024-03-17T17:04:09;99029.59;;;2.90;47.56
65534;BME280;53640;55.838;37.184;2024-03-17T17:06:36;99040.78;;;2.94;47.90
65534;BME280;53640;55.838;37.184;2024-03-17T17:09:03;99010.13;;;2.73;47.49
65534;BME280;53640;55.838;37.184;2024-03-17T17:11:33;99054.09;;;3.02;48.09
65534;BME280;53640;55.838;37.184;2024-03-17T17:14:02;99049.91;;;2.99;47.84
65534;BME280;53640;55.838;37.184;2024-03-17T17:16:30;98985.47;;;2.63;47.80
65534;BME280;53640;55.838;37.184;2024-03-17T17:19:05;99027.44;;;2.86;48.05
65534;BME280;53640;55.838;37.184;2024-03-17T17:21:35;99046.13;;;2.94;47.72
65534;BME280;53640;55.838;37.184;2024-03-17T17:24:02;98968.91;;;2.45;47.76
65534;BME280;53640;55.838;37.184;2024-03-17T17:26:36;98982.16;;;2.61;47.75
65534;BME280;53640;55.838;37.184;2024-03-17T17:29:03;98990.69;;;2.57;48.05
65534;BME280;53640;55.838;37.184;2024-03-17T17:31:31;99024.66;;;2.79;47.76
65534;BME280;53640;55.838;37.184;2024-03-17T17:33:58;99018.97;;;2.74;47.83
65534;BME280;53640;55.838;37.184;2024-03-17T17:36:25;98970.41;;;2.39;47.85
65534;BME280;53640;55.838;37.184;2024-03-17T17:38:55;99036.31;;;2.78;48.48
65534;BME280;53640;55.838;37.184;2024-03-17T17:41:22;98954.16;;;2.18;48.27
65534;BME280;53640;55.838;37.184;2024-03-17T17:43:50;99024.66;;;2.71;48.25
65534;BME280;53640;55.838;37.184;2024-03-17T17:46:22;99040.84;;;2.77;48.36
65534;BME280;53640;55.838;37.184;2024-03-17T17:48:50;98965.47;;;2.28;48.54
65534;BME280;53640;55.838;37.184;2024-03-17T17:51:20;99016.22;;;2.59;48.60
65534;BME280;53640;55.838;37.184;2024-03-17T17:53:51;99036.31;;;2.78;48.50
65534;BME280;53640;55.838;37.184;2024-03-17T17:56:19;99036.16;;;2.79;48.33
65534;BME280;53640;55.838;37.184;2024-03-17T17:58:50;98933.47;;;2.20;48.27
65534;BME280;53640;55.838;37.184;2024-03-17T18:01:20;99046.47;;;2.91;48.10
65534;BME280;53640;55.838;37.184;2024-03-17T18:03:48;99024.50;;;2.72;48.51
65534;BME280;53640;55.838;37.184;2024-03-17T18:06:18;98947.16;;;2.17;48.22
65534;BME280;53640;55.838;37.184;2024-03-17T18:08:46;99023.84;;;2.70;48.27
65534;BME280;53640;55.838;37.184;2024-03-17T18:11:18;99046.13;;;2.86;48.39
65534;BME280;53640;55.838;37.184;2024-03-17T18:13:45;99043.47;;;2.86;48.38
65534;BME280;53640;55.838;37.184;2024-03-17T18:16:14;98938.13;;;2.26;48.51
65534;BME280;53640;55.838;37.184;2024-03-17T18:18:43;99035.53;;;2.69;49.00
65534;BME280;53640;55.838;37.184;2024-03-17T18:21:11;98924.84;;;2.01;48.93
65534;BME280;53640;55.838;37.184;2024-03-17T18:23:39;99010.56;;;2.54;48.93
65534;BME280;53640;55.838;37.184;2024-03-17T18:28:40;99050.72;;;2.77;48.46
65534;BME280;53640;55.838;37.184;2024-03-17T18:31:07;99059.56;;;2.77;48.97
65534;BME280;53640;55.838;37.184;2024-03-17T18:33:37;99016.94;;;2.53;48.77
65534;BME280;53640;55.838;37.184;2024-03-17T18:36:05;99009.59;;;2.47;48.64
65534;BME280;53640;55.838;37.184;2024-03-17T18:38:33;99013.91;;;2.56;48.88
65534;BME280;53640;55.838;37.184;2024-03-17T18:43:32;98988.63;;;2.36;48.60
65534;BME280;53640;55.838;37.184;2024-03-17T18:46:09;98936.03;;;2.05;48.78
65534;BME280;53640;55.838;37.184;2024-03-17T18:48:37;98983.13;;;2.29;48.87
65534;BME280;53640;55.838;37.184;2024-03-17T18:51:04;99014.59;;;2.50;48.65
65534;BME280;53640;55.838;37.184;2024-03-17T18:53:31;99060.94;;;2.65;48.96
65534;BME280;53640;55.838;37.184;2024-03-17T18:56:02;99042.97;;;2.51;49.04
65534;BME280;53640;55.838;37.184;2024-03-17T18:58:31;99050.47;;;2.55;49.33
65534;BME280;53640;55.838;37.184;2024-03-17T19:01:00;99042.34;;;2.49;49.07
65534;BME280;53640;55.838;37.184;2024-03-17T19:03:34;99019.53;;;2.30;49.54
65534;BME280;53640;55.838;37.184;2024-03-17T19:06:11;99031.47;;;2.50;48.97
65534;BME280;53640;55.838;37.184;2024-03-17T19:08:39;98931.59;;;1.89;49.21
65534;BME280;53640;55.838;37.184;2024-03-17T19:11:07;99019.00;;;2.35;49.19
65534;BME280;53640;55.838;37.184;2024-03-17T19:13:34;99056.81;;;2.54;49.18
65534;BME280;53640;55.838;37.184;2024-03-17T19:16:06;99050.16;;;2.50;49.48
65534;BME280;53640;55.838;37.184;2024-03-17T19:18:37;99023.69;;;2.33;49.40
65534;BME280;53640;55.838;37.184;2024-03-17T19:23:36;99023.84;;;2.39;49.10
65534;BME280;53640;55.838;37.184;2024-03-17T19:26:07;99024.16;;;2.36;49.25
65534;BME280;53640;55.838;37.184;2024-03-17T19:28:35;99046.31;;;2.53;49.64
65534;BME280;53640;55.838;37.184;2024-03-17T19:31:02;98955.75;;;1.88;49.80
65534;BME280;53640;55.838;37.184;2024-03-17T19:33:32;99039.66;;;2.49;49.42
65534;BME280;53640;55.838;37.184;2024-03-17T19:36:09;99023.69;;;2.33;49.69
65534;BME280;53640;55.838;37.184;2024-03-17T19:38:55;98962.06;;;1.95;49.50
65534;BME280;53640;55.838;37.184;2024-03-17T19:41:21;98947.59;;;1.89;49.49
65534;BME280;53640;55.838;37.184;2024-03-17T19:43:48;99051.66;;;2.53;49.24
65534;BME280;53640;55.838;37.184;2024-03-17T19:46:19;98994.69;;;2.21;49.64
65534;BME280;53640;55.838;37.184;2024-03-17T19:48:55;99017.66;;;2.39;49.38
65534;BME280;53640;55.838;37.184;2024-03-17T19:51:23;98943.59;;;1.93;49.20
65534;BME280;53640;55.838;37.184;2024-03-17T19:53:55;98938.44;;;1.84;49.55
65534;BME280;53640;55.838;37.184;2024-03-17T19:56:22;99011.00;;;2.35;49.57
65534;BME280;53640;55.838;37.184;2024-03-17T19:58:50;98949.75;;;1.94;49.16
65534;BME280;53640;55.838;37.184;2024-03-17T20:01:19;99022.00;;;2.40;49.36
65534;BME280;53640;55.838;37.184;2024-03-17T20:03:48;98990.16;;;2.22;49.69
65534;BME280;53640;55.838;37.184;2024-03-17T20:06:21;98997.19;;;2.23;49.26
65534;BME280;53640;55.838;37.184;2024-03-17T20:08:49;99021.00;;;2.33;49.69
65534;BME280;53640;55.838;37.184;2024-03-17T20:11:16;99045.50;;;2.44;49.58
65534;BME280;53640;55.838;37.184;2024-03-17T20:14:09;99030.72;;;2.34;49.86
65534;BME280;53640;55.838;37.184;2024-03-17T20:16:35;99045.69;;;2.43;49.60
65534;BME280;53640;55.838;37.184;2024-03-17T20:19:04;99031.53;;;2.34;49.65
65534;BME280;53640;55.838;37.184;2024-03-17T20:21:31;99047.22;;;2.37;50.01
65534;BME280;53640;55.838;37.184;2024-03-17T20:23:59;99035.41;;;2.23;49.83
65534;BME280;53640;55.838;37.184;2024-03-17T20:26:26;99013.41;;;2.13;49.96
65534;BME280;53640;55.838;37.184;2024-03-17T20:28:56;99044.72;;;2.36;49.83
65534;BME280;53640;55.838;37.184;2024-03-17T20:31:29;99052.19;;;2.40;49.98
65534;BME280;53640;55.838;37.184;2024-03-17T20:33:57;98988.09;;;2.01;49.91
65534;BME280;53640;55.838;37.184;2024-03-17T20:36:23;99048.06;;;2.38;50.05
65534;BME280;53640;55.838;37.184;2024-03-17T20:38:53;99046.84;;;2.40;49.95
65534;BME280;53640;55.838;37.184;2024-03-17T20:41:19;99047.53;;;2.42;49.78
65534;BME280;53640;55.838;37.184;2024-03-17T20:43:46;99020.41;;;2.22;49.82
65534;BME280;53640;55.838;37.184;2024-03-17T20:46:12;99032.06;;;2.21;50.24
65534;BME280;53640;55.838;37.184;2024-03-17T20:48:39;98998.09;;;2.07;50.17
65534;BME280;53640;55.838;37.184;2024-03-17T20:51:06;99053.06;;;2.33;49.88
65534;BME280;53640;55.838;37.184;2024-03-17T20:53:36;99050.06;;;2.36;49.89
65534;BME280;53640;55.838;37.184;2024-03-17T20:56:04;99016.38;;;2.18;50.13
65534;BME280;53640;55.838;37.184;2024-03-17T20:58:31;99052.69;;;2.44;50.28
65534;BME280;53640;55.838;37.184;2024-03-17T21:00:57;99016.38;;;2.18;49.74
65534;BME280;53640;55.838;37.184;2024-03-17T21:03:25;99050.00;;;2.44;49.77
65534;BME280;53640;55.838;37.184;2024-03-17T21:05:52;99061.03;;;2.49;49.75
65534;BME280;53640;55.838;37.184;2024-03-17T21:08:19;99007.88;;;2.23;49.73
65534;BME280;53640;55.838;37.184;2024-03-17T21:10:45;99040.00;;;2.46;49.72
65534;BME280;53640;55.838;37.184;2024-03-17T21:13:13;99045.31;;;2.54;49.90
65534;BME280;53640;55.838;37.184;2024-03-17T21:15:40;99044.28;;;2.55;49.58
65534;BME280;53640;55.838;37.184;2024-03-17T21:18:08;99025.84;;;2.37;49.50
65534;BME280;53640;55.838;37.184;2024-03-17T21:20:35;99047.78;;;2.55;49.83
65534;BME280;53640;55.838;37.184;2024-03-17T21:23:02;99046.81;;;2.57;49.96
65534;BME280;53640;55.838;37.184;2024-03-17T21:25:28;98997.19;;;2.23;49.54
65534;BME280;53640;55.838;37.184;2024-03-17T21:27:55;98942.91;;;1.91;49.74
65534;BME280;53640;55.838;37.184;2024-03-17T21:30:21;99046.31;;;2.53;49.77
65534;BME280;53640;55.838;37.184;2024-03-17T21:32:48;99052.00;;;2.50;49.65
65534;BME280;53640;55.838;37.184;2024-03-17T21:35:18;99053.13;;;2.55;49.80
65534;BME280;53640;55.838;37.184;2024-03-17T21:37:45;98993.03;;;2.20;49.75
65534;BME280;53640;55.838;37.184;2024-03-17T21:40:11;99008.34;;;2.35;49.74
65534;BME280;53640;55.838;37.184;2024-03-17T21:42:41;99048.81;;;2.54;50.00
65534;BME280;53640;55.838;37.184;2024-03-17T21:45:09;99047.69;;;2.49;49.65
65534;BME280;53640;55.838;37.184;2024-03-17T21:47:39;99017.69;;;2.30;49.83
65534;BME280;53640;55.838;37.184;2024-03-17T21:50:11;99028.34;;;2.39;50.04
65534;BME280;53640;55.838;37.184;2024-03-17T21:52:39;99014.53;;;2.27;50.06
65534;BME280;53640;55.838;37.184;2024-03-17T21:55:08;99026.69;;;2.38;49.65
65534;BME280;53640;55.838;37.184;2024-03-17T21:57:37;98930.16;;;1.70;49.82
65534;BME280;53640;55.838;37.184;2024-03-17T22:00:07;99005.38;;;2.21;49.96
65534;BME280;53640;55.838;37.184;2024-03-17T22:02:40;99033.00;;;2.37;49.96
65534;BME280;53640;55.838;37.184;2024-03-17T22:05:07;99002.38;;;2.16;50.16
65534;BME280;53640;55.838;37.184;2024-03-17T22:07:38;99031.69;;;2.33;50.12
65534;BME280;53640;55.838;37.184;2024-03-17T22:10:05;99024.53;;;2.25;50.40
65534;BME280;53640;55.838;37.184;2024-03-17T22:12:33;99025.56;;;2.24;50.41
65534;BME280;53640;55.838;37.184;2024-03-17T22:15:00;99027.75;;;2.20;50.27
65534;BME280;53640;55.838;37.184;2024-03-17T22:17:26;98989.94;;;2.00;50.28
65534;BME280;53640;55.838;37.184;2024-03-17T22:19:54;99041.25;;;2.27;50.39
65534;BME280;53640;55.838;37.184;2024-03-17T22:22:21;99041.72;;;2.30;50.67
65534;BME280;53640;55.838;37.184;2024-03-17T22:24:47;99037.06;;;2.24;50.30
65534;BME280;53640;55.838;37.184;2024-03-17T22:27:13;99036.41;;;2.30;50.18
65534;BME280;53640;55.838;37.184;2024-03-17T22:29:40;99009.41;;;2.09;50.22
65534;BME280;53640;55.838;37.184;2024-03-17T22:32:06;98988.63;;;1.96;50.39
65534;BME280;53640;55.838;37.184;2024-03-17T22:34:33;99051.75;;;2.28;50.46
65534;BME280;53640;55.838;37.184;2024-03-17T22:37:00;98966.66;;;1.78;50.60
65534;BME280;53640;55.838;37.184;2024-03-17T22:39:27;99050.09;;;2.27;50.51
65534;BME280;53640;55.838;37.184;2024-03-17T22:41:53;99034.91;;;2.20;50.24
65534;BME280;53640;55.838;37.184;2024-03-17T22:44:19;99045.75;;;2.26;50.50
65534;BME280;53640;55.838;37.184;2024-03-17T22:46:46;99049.75;;;2.30;50.43
65534;BME280;53640;55.838;37.184;2024-03-17T22:49:12;99027.25;;;2.17;50.38
65534;BME280;53640;55.838;37.184;2024-03-17T22:51:38;98993.13;;;1.96;50.10
65534;BME280;53640;55.838;37.184;2024-03-17T22:54:06;99007.09;;;2.06;50.49
65534;BME280;53640;55.838;37.184;2024-03-17T22:56:33;99003.63;;;1.97;50.86
65534;BME280;53640;55.838;37.184;2024-03-17T22:58:59;98991.97;;;1.90;50.67
65534;BME280;53640;55.838;37.184;2024-03-17T23:01:25;99052.94;;;2.26;50.52
65534;BME280;53640;55.838;37.184;2024-03-17T23:04:00;99050.13;;;2.19;50.59
65534;BME280;53640;55.838;37.184;2024-03-17T23:06:28;99000.78;;;1.91;50.71
65534;BME280;53640;55.838;37.184;2024-03-17T23:08:54;99033.13;;;2.12;50.55
65534;BME280;53640;55.838;37.184;2024-03-17T23:11:21;99014.44;;;2.04;50.46
65534;BME280;53640;55.838;37.184;2024-03-17T23:13:47;99038.09;;;2.23;50.59
65534;BME280;53640;55.838;37.184;2024-03-17T23:16:15;98997.94;;;2.00;50.75
65534;BME280;53640;55.838;37.184;2024-03-17T23:18:41;99049.25;;;2.27;50.53
65534;BME280;53640;55.838;37.184;2024-03-17T23:21:09;99059.06;;;2.35;50.51
65534;BME280;53640;55.838;37.184;2024-03-17T23:23:35;98999.59;;;2.01;50.21
65534;BME280;53640;55.838;37.184;2024-03-17T23:26:02;99039.72;;;2.33;50.62